createdAt,value
2022-12-18T00:08:21.661Z,100.00
2022-12-18T00:18:24.460Z,100.00
2022-12-18T00:28:28.676Z,100.00
2022-12-18T00:38:31.512Z,100.00
2022-12-18T00:48:35.777Z,100.00
2022-12-18T00:58:39.147Z,100.00
2022-12-18T01:08:43.253Z,100.00
2022-12-18T01:18:48.842Z,100.00
2022-12-18T01:28:53.170Z,100.00
2022-12-18T01:38:56.359Z,100.00
2022-12-18T01:49:03.173Z,100.00
2022-12-18T01:59:07.779Z,100.00
2022-12-18T02:09:14.576Z,100.00
2022-12-18T02:19:24.032Z,100.00
2022-12-18T02:29:31.776Z,100.00
2022-12-18T02:39:35.139Z,100.00
2022-12-18T02:49:46.945Z,100.00
2022-12-18T02:59:55.272Z,100.00
2022-12-18T03:10:00.366Z,100.00
2022-12-18T03:20:06.365Z,100.00
2022-12-18T03:30:14.150Z,100.00
2022-12-18T03:40:17.058Z,100.00
2022-12-18T03:50:24.222Z,100.00
2022-12-18T04:00:27.968Z,100.00
2022-12-18T04:10:40.841Z,100.00
2022-12-18T04:20:43.727Z,99.86
2022-12-18T04:30:49.068Z,99.16
2022-12-18T04:40:52.394Z,99.03
2022-12-18T04:51:02.906Z,99.00
2022-12-18T05:01:05.745Z,99.13
2022-12-18T05:11:10.784Z,99.62
2022-12-18T05:21:13.523Z,99.44
2022-12-18T05:31:17.668Z,98.89
2022-12-18T05:41:20.451Z,98.82
2022-12-18T05:51:24.508Z,98.79
2022-12-18T06:01:28.430Z,98.28
2022-12-18T06:11:32.546Z,98.67
2022-12-18T06:21:35.750Z,99.08
2022-12-18T06:31:40.471Z,99.04
2022-12-18T06:41:43.427Z,99.41
2022-12-18T06:51:47.803Z,99.84
2022-12-18T07:01:51.546Z,99.35
2022-12-18T07:11:55.685Z,99.55
2022-12-18T07:21:58.714Z,99.65
2022-12-18T07:32:02.907Z,99.14
2022-12-18T07:42:38.282Z,98.91
2022-12-18T07:52:42.577Z,97.50
2022-12-18T08:02:45.427Z,96.77
2022-12-18T08:12:52.040Z,96.64
2022-12-18T08:22:55.180Z,96.32
2022-12-18T08:32:59.302Z,95.75
2022-12-18T08:43:19.432Z,95.15
2022-12-18T08:53:23.522Z,94.27
2022-12-18T09:03:27.747Z,93.68
2022-12-18T09:13:32.107Z,92.97
2022-12-18T09:23:35.023Z,92.60
2022-12-18T09:33:39.624Z,91.25
2022-12-18T09:43:47.810Z,90.67
2022-12-18T09:53:58.386Z,89.92
2022-12-18T10:04:02.041Z,88.85
2022-12-18T10:14:11.945Z,87.99
2022-12-18T10:24:23.879Z,87.91
2022-12-18T10:34:28.490Z,86.31
2022-12-18T10:44:31.435Z,86.05
2022-12-18T10:54:37.124Z,86.17
2022-12-18T11:04:53.200Z,84.81
2022-12-18T11:14:58.761Z,85.26
2022-12-18T11:35:37.736Z,84.16
2022-12-18T11:45:46.601Z,84.54
2022-12-18T11:56:04.460Z,82.62
2022-12-18T12:06:18.509Z,83.15
2022-12-18T12:16:31.360Z,82.83
2022-12-18T12:26:42.707Z,82.58
2022-12-18T12:36:58.746Z,82.05
2022-12-18T12:47:08.188Z,82.28
2022-12-18T12:57:19.765Z,81.83
2022-12-18T13:07:31.476Z,81.26
2022-12-18T13:17:36.256Z,81.57
2022-12-18T13:27:55.575Z,80.67
2022-12-18T13:38:00.347Z,80.52
2022-12-18T13:48:04.742Z,80.65
2022-12-18T13:58:09.308Z,80.47
2022-12-18T14:08:16.342Z,80.17
2022-12-18T14:18:25.765Z,79.97
2022-12-18T14:28:29.411Z,80.02
2022-12-18T14:38:35.722Z,80.02
2022-12-18T14:48:41.701Z,79.49
2022-12-18T14:58:51.221Z,80.53
2022-12-18T15:08:54.353Z,80.22
2022-12-18T15:18:58.900Z,81.02
2022-12-18T15:29:03.996Z,81.25
2022-12-18T15:39:08.729Z,81.79
2022-12-18T15:49:11.630Z,81.66
2022-12-18T15:59:17.614Z,81.46
2022-12-18T16:09:25.932Z,81.34
2022-12-18T16:19:31.113Z,81.38
2022-12-18T16:29:34.071Z,81.44
2022-12-18T16:39:40.109Z,81.26
2022-12-18T16:49:43.192Z,81.33
2022-12-18T16:59:48.312Z,81.05
2022-12-18T17:09:51.612Z,81.14
2022-12-18T17:19:56.029Z,80.98
2022-12-18T17:29:59.066Z,81.13
2022-12-18T17:40:03.412Z,81.20
2022-12-18T17:50:06.944Z,81.26
2022-12-18T18:00:13.072Z,80.72
2022-12-18T18:10:16.959Z,81.08
2022-12-18T18:20:22.836Z,80.62
2022-12-18T18:30:26.023Z,79.99
2022-12-18T18:40:30.511Z,79.93
2022-12-18T18:50:33.557Z,79.41
2022-12-18T19:00:37.933Z,79.36
2022-12-18T19:10:41.780Z,79.11
2022-12-18T19:20:54.977Z,79.74
2022-12-18T19:31:01.798Z,84.75
2022-12-18T19:41:07.214Z,88.90
2022-12-18T19:51:13.020Z,91.70
2022-12-18T20:01:19.610Z,93.46
2022-12-18T20:11:22.906Z,94.24
2022-12-18T20:21:27.550Z,96.06
2022-12-18T20:31:30.649Z,97.28
2022-12-18T20:41:38.307Z,98.21
2022-12-18T20:51:42.196Z,98.87
2022-12-18T21:01:48.905Z,99.42
2022-12-18T21:12:12.405Z,100.00
2022-12-18T21:22:18.828Z,100.00
2022-12-18T21:32:21.919Z,100.00
2022-12-18T21:42:46.429Z,100.00
2022-12-18T21:52:49.394Z,100.00
2022-12-18T22:03:08.711Z,100.00
2022-12-18T22:13:17.330Z,100.00
2022-12-18T22:23:21.744Z,100.00
2022-12-18T22:33:24.691Z,100.00
2022-12-18T22:43:29.027Z,100.00
2022-12-18T22:53:31.921Z,100.00
2022-12-18T23:03:37.400Z,100.00
2022-12-18T23:13:41.257Z,100.00
2022-12-18T23:23:46.098Z,100.00
2022-12-18T23:33:49.361Z,100.00
2022-12-18T23:43:54.416Z,100.00
2022-12-18T23:53:59.342Z,100.00
